Weather at Brussels South Charleroi Airport

Public forecast

Using degrees Celsius for public forecast. Weather courtesy of forecast.io.

Current aviation weather report (METAR) for Brussels South Charleroi Airport

Report is more than 6 hours old.

2022/11/14 15:20 (retrieved 2 years ago)

EBCI 141520Z 18007KT 150V210 9999 BKN006 05/04 Q1010 NOSIG

Aviation forecast (TAF) for Brussels South Charleroi Airport

Forecast is more than 12 hours old.

2023/02/22 18:27 (retrieved 1 year ago)

TAF EBCI 221720Z 2218/2324 21005KT 9999 SCT009 BKN012 BECMG 2218/2221 SCT005 BKN009 BECMG 2220/2222 2500 -RADZ SCT003 BKN005 TEMPO 2222/2310 0800 DZRA BCFG BKN002 BECMG 2310/2312 6000 NSW SCT015 BKN020 TEMPO 2318/2324 3500 -RADZ SCT008 BKN012